Time;durP1;ratioP1;P1;durP2;ratioP2;P2;SDS_P1;SDS_P2;PMS_P1;PMS_P2;Temp;Humidity;BMP_temperature;BMP_pressure;BME280_temperature;BME280_humidity;BME280_pressure;Samples;Min_cycle;Max_cycle;Signal;HPM_P1;HPM_P2
2023/09/21 00:01:21;;;;;;;8.05;4.75;;;;;;;18.25;100.00;64894.31;5050364;28;20640;-52
2023/09/21 00:03:48;;;;;;;8.50;4.85;;;;;;;18.12;100.00;64880.53;5050491;28;20205;-51
2023/09/21 00:06:17;;;;;;;9.13;4.90;;;;;;;18.29;100.00;64896.72;5050398;28;20611;-52
2023/09/21 00:08:47;;;;;;;11.27;4.60;;;;;;;18.37;100.00;64905.56;5050511;28;20209;-54
2023/09/21 00:11:14;;;;;;;9.60;4.50;;;;;;;18.47;100.00;64916.03;5050366;28;20300;-53
2023/09/21 00:13:40;;;;;;;6.90;4.50;;;;;;;18.38;100.00;64904.09;5050290;28;20185;-54
2023/09/21 00:16:12;;;;;;;9.07;4.72;;;;;;;18.49;100.00;64918.25;5049841;28;20264;-52
2023/09/21 00:18:43;;;;;;;7.55;4.90;;;;;;;18.34;100.00;64904.25;5050404;28;20212;-52
2023/09/21 00:21:12;;;;;;;11.05;4.63;;;;;;;18.23;100.00;64887.00;5032265;28;20232;-51
2023/09/21 00:23:38;;;;;;;8.57;4.80;;;;;;;18.39;100.00;64907.75;5050071;28;20205;-52
2023/09/21 00:26:04;;;;;;;7.47;4.88;;;;;;;18.37;100.00;64905.56;5050137;28;20363;-54
2023/09/21 00:28:30;;;;;;;9.85;5.30;;;;;;;18.58;100.00;64928.19;5050078;28;20706;-52
2023/09/21 00:31:01;;;;;;;6.95;4.35;;;;;;;18.60;100.00;64929.84;5032154;28;20262;-52
2023/09/21 00:33:29;;;;;;;8.80;4.57;;;;;;;18.54;100.00;64923.78;5050060;28;20201;-52
2023/09/21 00:35:58;;;;;;;12.57;5.18;;;;;;;18.44;100.00;64915.84;5050032;28;20293;-52
2023/09/21 00:38:24;;;;;;;9.02;4.93;;;;;;;18.51;100.00;64923.00;5032046;28;20189;-52
2023/09/21 00:40:55;;;;;;;8.02;5.20;;;;;;;18.52;100.00;64921.56;5049910;28;20209;-51
2023/09/21 00:43:24;;;;;;;12.15;4.53;;;;;;;18.43;100.00;64912.19;5049887;28;20200;-53
2023/09/21 00:45:52;;;;;;;10.57;4.65;;;;;;;18.40;100.00;64908.84;5049793;28;20312;-53
2023/09/21 00:48:22;;;;;;;9.70;5.18;;;;;;;18.25;100.00;64894.88;5049747;28;20208;-53
2023/09/21 00:50:51;;;;;;;12.27;5.50;;;;;;;18.26;100.00;64893.41;5049851;28;20205;-55
2023/09/21 00:53:17;;;;;;;13.93;6.53;;;;;;;18.08;100.00;64873.03;5049587;28;20205;-56
2023/09/21 00:55:52;;;;;;;13.77;5.57;;;;;;;18.01;100.00;64865.84;5049817;28;20205;-53
2023/09/21 00:58:24;;;;;;;18.75;5.68;;;;;;;18.07;100.00;64869.38;5031837;28;20300;-53
2023/09/21 01:00:52;;;;;;;10.98;6.22;;;;;;;18.17;100.00;64882.94;5049557;28;20229;-52
2023/09/21 01:03:17;;;;;;;14.77;6.63;;;;;;;18.15;100.00;64883.28;5049497;28;20220;-56
2023/09/21 01:05:45;;;;;;;14.82;7.45;;;;;;;18.04;100.00;64868.63;5049727;28;20300;-52
2023/09/21 01:08:13;;;;;;;11.55;6.60;;;;;;;18.20;100.00;64886.78;5031716;28;20297;-52
2023/09/21 01:10:44;;;;;;;11.93;6.35;;;;;;;18.44;100.00;64915.31;5049702;28;20204;-54
2023/09/21 01:13:12;;;;;;;9.32;6.63;;;;;;;18.78;100.00;64947.69;5049615;28;20270;-52
2023/09/21 01:15:41;;;;;;;15.73;7.28;;;;;;;18.74;100.00;64945.28;5049516;28;20258;-53
2023/09/21 01:18:07;;;;;;;11.38;6.93;;;;;;;18.67;100.00;64935.56;5049493;28;20249;-55
2023/09/21 01:20:34;;;;;;;14.77;7.38;;;;;;;18.65;100.00;64935.91;5049380;28;20201;-55
2023/09/21 01:23:15;;;;;;;16.17;6.88;;;;;;;18.72;100.00;64940.53;5049386;28;20209;-52
2023/09/21 01:25:46;;;;;;;13.05;6.97;;;;;;;18.69;100.00;64939.75;5031420;28;20206;-52
2023/09/21 01:28:19;;;;;;;14.05;6.97;;;;;;;18.71;100.00;64939.97;5052024;28;20256;-53
2023/09/21 01:30:45;;;;;;;11.60;6.85;;;;;;;18.62;100.00;64932.03;5053027;28;20196;-52
2023/09/21 01:33:12;;;;;;;12.15;7.35;;;;;;;18.55;100.00;64924.31;5052716;28;20296;-54
2023/09/21 01:35:43;;;;;;;12.50;7.15;;;;;;;18.70;100.00;64940.88;5052740;28;20201;-51
2023/09/21 01:38:09;;;;;;;14.90;7.32;;;;;;;18.70;100.00;64940.88;5052734;28;20289;-53
2023/09/21 01:40:39;;;;;;;17.08;6.70;;;;;;;18.76;100.00;64947.50;5052432;28;20224;-53
2023/09/21 01:43:08;;;;;;;12.95;6.57;;;;;;;18.68;100.00;64938.66;5052560;28;20217;-52
2023/09/21 01:45:40;;;;;;;12.70;6.43;;;;;;;18.61;100.00;64933.47;5052476;28;20671;-53
2023/09/21 01:48:10;;;;;;;13.98;5.60;;;;;;;18.39;100.00;64905.22;5052400;28;20205;-53
2023/09/21 01:50:43;;;;;;;10.30;6.47;;;;;;;18.33;100.00;64901.13;5052731;28;20213;-52
2023/09/21 01:53:09;;;;;;;13.60;5.97;;;;;;;18.25;100.00;64889.22;5035653;28;20250;-51
2023/09/21 01:55:36;;;;;;;16.85;6.30;;;;;;;18.17;100.00;64886.03;5052378;28;20201;-52
2023/09/21 01:58:04;;;;;;;12.75;6.47;;;;;;;18.33;100.00;64901.13;5052323;28;20209;-53
2023/09/21 02:00:30;;;;;;;8.52;5.97;;;;;;;18.39;100.00;64907.19;5052236;28;20206;-52
2023/09/21 02:02:56;;;;;;;11.60;5.90;;;;;;;18.36;100.00;64901.34;5052465;28;20220;-53
2023/09/21 02:05:23;;;;;;;12.95;6.00;;;;;;;18.36;100.00;64904.44;5052257;28;20241;-53
2023/09/21 02:07:51;;;;;;;9.13;6.10;;;;;;;18.51;100.00;64922.44;5052237;28;20217;-53
2023/09/21 02:10:17;;;;;;;10.68;6.32;;;;;;;18.36;100.00;64903.91;5052238;28;20208;-53
2023/09/21 02:12:57;;;;;;;9.57;5.25;;;;;;;18.32;100.00;64902.56;5052376;28;20220;-52
2023/09/21 02:15:26;;;;;;;11.23;6.28;;;;;;;18.12;100.00;64880.53;5052263;28;20209;-53
2023/09/21 02:17:56;;;;;;;9.88;5.90;;;;;;;18.04;100.00;64866.06;5051956;28;20217;-53
2023/09/21 02:20:28;;;;;;;8.40;5.07;;;;;;;18.08;100.00;64873.56;5051990;28;20205;-52
2023/09/21 02:23:00;;;;;;;10.23;5.85;;;;;;;18.01;100.00;64863.31;5052166;28;20224;-53
2023/09/21 02:25:31;;;;;;;7.43;5.43;;;;;;;18.10;100.00;64878.31;5052083;28;20257;-52
2023/09/21 02:27:57;;;;;;;8.13;6.07;;;;;;;18.01;100.00;64870.97;5052071;28;20228;-53
2023/09/21 02:30:24;;;;;;;10.90;4.55;;;;;;;18.03;100.00;64870.59;5052093;28;20198;-54
2023/09/21 02:32:51;;;;;;;7.97;5.00;;;;;;;17.82;100.00;64846.88;5051878;28;20201;-52
2023/09/21 02:35:23;;;;;;;8.95;5.70;;;;;;;17.79;100.00;64844.16;5034005;28;20201;-52
2023/09/21 02:37:50;;;;;;;10.55;5.50;;;;;;;17.72;100.00;64833.88;5033899;28;20277;-52
2023/09/21 02:40:19;;;;;;;8.18;5.20;;;;;;;17.73;100.00;64836.97;5052135;28;20268;-57
2023/09/21 02:42:49;;;;;;;12.35;4.80;;;;;;;17.76;100.00;64840.84;5052086;28;20224;-57
2023/09/21 02:45:18;;;;;;;11.88;5.30;;;;;;;17.75;100.00;64839.19;5051896;28;20217;-55
2023/09/21 02:47:46;;;;;;;8.93;5.03;;;;;;;17.78;100.00;64843.03;5033584;28;20221;-56
2023/09/21 02:50:21;;;;;;;8.27;5.22;;;;;;;17.89;100.00;64854.63;5051906;28;20204;-57
2023/09/21 02:53:04;;;;;;;10.48;5.28;;;;;;;18.00;100.00;64861.63;5033753;28;20772;-56
2023/09/21 02:55:30;;;;;;;9.27;4.90;;;;;;;18.06;100.00;64871.34;5051539;28;20208;-55
2023/09/21 02:58:13;;;;;;;8.25;5.03;;;;;;;18.11;100.00;64878.88;5051727;28;20205;-60
2023/09/21 03:00:43;;;;;;;9.43;5.15;;;;;;;18.19;100.00;64885.69;5051409;28;20201;-57
2023/09/21 03:03:12;;;;;;;8.85;5.07;;;;;;;18.23;100.00;64892.66;5033807;28;20225;-56
2023/09/21 03:05:41;;;;;;;15.15;5.53;;;;;;;18.38;100.00;64908.66;5051356;28;20217;-56
2023/09/21 03:08:13;;;;;;;9.65;5.45;;;;;;;18.30;100.00;64897.81;5051402;28;20213;-56
2023/09/21 03:10:39;;;;;;;6.40;5.07;;;;;;;18.37;100.00;64905.56;5051261;28;20250;-56
2023/09/21 03:13:05;;;;;;;11.32;5.57;;;;;;;18.31;100.00;64901.50;5051394;28;20210;-55
2023/09/21 03:15:34;;;;;;;9.80;5.47;;;;;;;18.46;100.00;64916.94;5051179;28;20205;-56
2023/09/21 03:17:59;;;;;;;9.25;5.72;;;;;;;18.45;100.00;64911.28;5051039;28;20278;-58
2023/09/21 03:22:54;;;;;;;12.05;6.03;;;;;;;18.10;100.00;64878.31;5051159;28;20221;-56
2023/09/21 03:25:27;;;;;;;17.52;6.32;;;;;;;18.18;100.00;64884.06;5051252;28;20356;-57
2023/09/21 03:27:53;;;;;;;10.73;5.85;;;;;;;18.23;100.00;64890.13;5051124;28;20217;-55
2023/09/21 03:30:20;;;;;;;14.90;6.40;;;;;;;18.26;100.00;64893.41;5051251;28;20200;-55
2023/09/21 03:32:46;;;;;;;13.10;5.93;;;;;;;18.30;100.00;64897.28;5050977;28;20201;-55
2023/09/21 03:35:12;;;;;;;11.43;6.97;;;;;;;18.43;100.00;64912.19;5050986;28;20233;-55
2023/09/21 03:37:43;;;;;;;10.20;6.60;;;;;;;18.32;100.00;64900.03;5050806;28;20213;-57
2023/09/21 03:40:13;;;;;;;8.75;6.93;;;;;;;18.29;100.00;64898.72;5051044;28;20200;-58
2023/09/21 03:42:39;;;;;;;14.95;7.70;;;;;;;18.19;100.00;64888.25;5050776;28;20714;-56
2023/09/21 03:45:05;;;;;;;20.25;11.85;;;;;;;18.17;100.00;64882.94;5050720;28;20197;-55
2023/09/21 03:47:31;;;;;;;11.88;8.48;;;;;;;18.35;100.00;64903.34;5049770;28;20290;-55
2023/09/21 03:49:59;;;;;;;12.52;6.97;;;;;;;18.41;100.00;64909.41;5050072;28;20266;-56
2023/09/21 03:52:25;;;;;;;13.70;7.88;;;;;;;18.30;100.00;64897.81;5051826;22;20233;-55
2023/09/21 03:54:52;;;;;;;17.45;7.35;;;;;;;18.25;100.00;64892.31;5070917;28;20275;-56
2023/09/21 03:57:17;;;;;;;19.55;10.88;;;;;;;18.28;100.00;64897.63;5058966;28;20546;-56
2023/09/21 03:59:46;;;;;;;20.48;8.65;;;;;;;18.30;100.00;64897.81;5032767;28;20707;-56
2023/09/21 04:02:14;;;;;;;14.30;8.82;;;;;;;18.37;100.00;64905.56;5050925;28;20223;-55
2023/09/21 04:04:41;;;;;;;15.40;7.75;;;;;;;18.36;100.00;64904.44;5050768;28;20198;-54
2023/09/21 04:07:07;;;;;;;12.18;6.90;;;;;;;18.55;100.00;64924.31;5050675;28;20217;-57
2023/09/21 04:09:34;;;;;;;14.65;6.68;;;;;;;18.48;100.00;64919.16;5050440;28;20662;-56
2023/09/21 04:12:00;;;;;;;19.70;6.75;;;;;;;18.40;100.00;64910.88;5032812;28;20223;-56
2023/09/21 04:14:27;;;;;;;16.13;7.28;;;;;;;18.33;100.00;64900.59;5050652;28;20228;-56
2023/09/21 04:16:56;;;;;;;10.10;6.25;;;;;;;18.40;100.00;64908.84;5050049;28;20300;-56
2023/09/21 04:19:22;;;;;;;14.02;7.75;;;;;;;18.59;100.00;64926.72;5050485;28;20228;-56
2023/09/21 04:21:50;;;;;;;15.50;7.07;;;;;;;18.62;100.00;64935.16;5050151;28;20630;-55
2023/09/21 04:24:17;;;;;;;13.60;6.63;;;;;;;18.46;100.00;64911.84;5050282;28;20284;-56
2023/09/21 04:26:43;;;;;;;15.80;6.07;;;;;;;18.50;100.00;64918.81;5032219;28;20225;-56
2023/09/21 04:29:09;;;;;;;9.25;6.63;;;;;;;18.54;100.00;64923.22;5050129;28;20201;-56
2023/09/21 04:31:36;;;;;;;10.30;5.97;;;;;;;18.46;100.00;64912.41;5048646;28;20216;-55
2023/09/21 04:34:02;;;;;;;8.48;5.43;;;;;;;18.52;100.00;64923.56;5050032;28;20330;-55
2023/09/21 04:36:29;;;;;;;10.35;6.43;;;;;;;18.61;100.00;64931.50;5049951;28;20725;-55
2023/09/21 04:38:54;;;;;;;11.90;6.30;;;;;;;18.56;100.00;64928.53;5050356;28;20348;-56
2023/09/21 04:41:21;;;;;;;10.07;5.80;;;;;;;18.22;100.00;64891.00;5050096;28;20297;-55
2023/09/21 04:43:48;;;;;;;10.23;6.28;;;;;;;18.15;100.00;64878.75;5050206;28;20201;-56
2023/09/21 04:46:14;;;;;;;10.60;5.78;;;;;;;18.21;100.00;64890.47;5049971;28;20736;-56
2023/09/21 04:48:41;;;;;;;14.45;6.80;;;;;;;18.39;100.00;64907.75;5049958;28;20207;-56
2023/09/21 04:51:12;;;;;;;10.30;5.60;;;;;;;18.42;100.00;64911.06;5049998;28;20237;-55
2023/09/21 04:53:39;;;;;;;12.32;6.50;;;;;;;18.46;100.00;64914.94;5032040;28;20204;-56
2023/09/21 04:56:04;;;;;;;15.07;5.20;;;;;;;18.49;100.00;64918.25;5049639;28;20255;-56
2023/09/21 04:58:31;;;;;;;17.00;5.80;;;;;;;19.37;100.00;65014.84;5049668;28;20205;-59
2023/09/21 05:00:56;;;;;;;12.00;6.68;;;;;;;20.18;100.00;65103.19;5050051;28;20243;-57
2023/09/21 05:03:22;;;;;;;12.20;6.40;;;;;;;19.98;100.00;65079.63;5052785;28;20190;-56
2023/09/21 05:05:49;;;;;;;12.35;5.97;;;;;;;19.56;100.00;65032.69;5053048;28;20228;-57
2023/09/21 05:08:16;;;;;;;12.27;6.38;;;;;;;19.16;100.00;64991.63;5035200;28;20217;-55
2023/09/21 05:10:42;;;;;;;9.80;6.50;;;;;;;18.97;100.00;64971.22;5035309;28;20672;-56
2023/09/21 05:13:08;;;;;;;12.27;6.90;;;;;;;18.63;100.00;64933.13;5053208;28;20209;-56
2023/09/21 05:15:34;;;;;;;13.77;6.82;;;;;;;18.44;100.00;64913.28;5053309;28;20590;-59
2023/09/21 05:18:00;;;;;;;15.25;8.65;;;;;;;18.46;100.00;64914.94;5053212;28;20208;-56
2023/09/21 05:20:25;;;;;;;15.95;7.78;;;;;;;18.34;100.00;64902.22;5053109;28;20198;-56
2023/09/21 05:22:51;;;;;;;11.30;7.35;;;;;;;18.26;100.00;64895.44;5051588;28;20228;-57
2023/09/21 05:25:17;;;;;;;10.32;7.38;;;;;;;18.04;100.00;64871.69;5053098;28;20209;-57
2023/09/21 05:27:43;;;;;;;16.83;8.90;;;;;;;18.01;100.00;64868.41;5053019;28;20575;-56
2023/09/21 05:30:09;;;;;;;18.48;10.00;;;;;;;18.01;100.00;64865.84;5053094;28;20206;-56
2023/09/21 05:32:36;;;;;;;25.52;11.85;;;;;;;18.01;100.00;64865.28;5053317;28;20213;-57
2023/09/21 05:35:07;;;;;;;20.50;11.13;;;;;;;17.98;100.00;64862.53;5035170;28;20189;-55
2023/09/21 05:37:34;;;;;;;21.15;12.13;;;;;;;18.00;100.00;64864.75;5053628;28;20209;-56
2023/09/21 05:40:00;;;;;;;27.20;12.32;;;;;;;18.21;100.00;64884.81;5052291;28;20227;-56
2023/09/21 05:42:26;;;;;;;25.33;12.18;;;;;;;18.40;100.00;64908.84;5050961;28;20205;-55
2023/09/21 05:44:52;;;;;;;19.45;11.02;;;;;;;18.63;100.00;64930.59;5050294;28;20204;-56
2023/09/21 05:47:19;;;;;;;29.15;10.73;;;;;;;19.09;100.00;64983.91;5052744;28;20217;-57
2023/09/21 05:49:44;;;;;;;21.02;11.20;;;;;;;19.33;100.00;65009.84;5052615;28;20200;-61
2023/09/21 05:52:13;;;;;;;21.25;10.80;;;;;;;19.27;100.00;65003.75;5052592;28;20213;-57
2023/09/21 05:54:40;;;;;;;20.05;10.60;;;;;;;19.44;100.00;65022.56;5052638;28;20197;-56
2023/09/21 05:57:06;;;;;;;17.30;9.80;;;;;;;19.60;100.00;65040.22;5052848;28;20580;-56
2023/09/21 05:59:31;;;;;;;17.95;10.50;;;;;;;19.52;100.00;65028.84;5052551;28;20208;-55
2023/09/21 06:01:58;;;;;;;11.10;8.45;;;;;;;19.60;100.00;65039.66;5052340;28;20209;-56
2023/09/21 06:04:24;;;;;;;18.67;9.48;;;;;;;19.40;100.00;65015.59;5051131;28;20177;-57
2023/09/21 06:06:51;;;;;;;16.48;8.55;;;;;;;19.21;100.00;64997.13;5052622;28;20304;-55
2023/09/21 06:09:23;;;;;;;16.75;8.80;;;;;;;19.42;100.00;65020.34;5052332;28;20209;-59
2023/09/21 06:11:50;;;;;;;13.65;8.32;;;;;;;19.68;100.00;65049.06;5052394;28;20210;-55
2023/09/21 06:14:17;;;;;;;20.33;8.18;;;;;;;19.55;100.00;65031.59;5051845;28;20203;-56
2023/09/21 06:16:43;;;;;;;14.48;8.15;;;;;;;19.60;100.00;65037.09;5051951;28;20305;-56
2023/09/21 06:19:13;;;;;;;15.68;8.10;;;;;;;19.76;100.00;65057.91;5052207;28;20221;-58
2023/09/21 06:21:40;;;;;;;14.77;7.85;;;;;;;19.85;100.00;65067.84;5034287;28;20214;-56
2023/09/21 06:24:12;;;;;;;10.05;6.15;;;;;;;19.93;100.00;65074.13;5052247;28;20201;-56
2023/09/21 06:26:38;;;;;;;9.70;5.65;;;;;;;19.86;100.00;65066.38;5065886;22;20224;-56
2023/09/21 06:29:04;;;;;;;11.23;6.07;;;;;;;19.94;100.00;65075.22;5072087;28;20197;-57
2023/09/21 06:31:30;;;;;;;11.13;6.53;;;;;;;19.91;100.00;65073.91;5066865;28;20217;-56
2023/09/21 06:33:59;;;;;;;13.05;6.40;;;;;;;20.08;100.00;65090.13;5034045;28;20198;-56
2023/09/21 06:36:29;;;;;;;10.60;5.97;;;;;;;20.05;100.00;65089.94;5052008;28;20656;-55
2023/09/21 06:38:57;;;;;;;11.82;5.28;;;;;;;20.07;100.00;65089.59;5033894;28;20296;-60
2023/09/21 06:41:23;;;;;;;10.73;6.07;;;;;;;20.08;100.00;65092.69;5051699;28;20692;-56
2023/09/21 06:43:51;;;;;;;8.70;5.97;;;;;;;20.27;100.00;65110.59;5034013;28;20371;-58
2023/09/21 06:46:17;;;;;;;89.47;14.65;;;;;;;20.22;100.00;65105.06;5051701;28;20275;-60
2023/09/21 06:48:43;;;;;;;20.35;9.68;;;;;;;20.27;100.00;65110.59;5051929;28;20201;-56
2023/09/21 06:51:08;;;;;;;11.00;6.03;;;;;;;20.23;100.00;65106.16;5051535;28;20205;-58
2023/09/21 06:53:37;;;;;;;12.77;6.18;;;;;;;20.00;100.00;65086.97;5033788;28;20199;-56
2023/09/21 06:56:04;;;;;;;10.32;6.38;;;;;;;20.05;100.00;65089.94;5051528;28;20672;-56
2023/09/21 06:58:30;;;;;;;16.80;7.13;;;;;;;20.03;100.00;65085.16;5051741;28;20192;-58
2023/09/21 07:00:59;;;;;;;17.73;6.65;;;;;;;20.10;100.00;65092.88;5051784;28;20307;-55
2023/09/21 07:03:25;;;;;;;12.18;7.10;;;;;;;20.16;100.00;65100.97;5051554;28;20236;-57
2023/09/21 07:05:51;;;;;;;18.77;8.65;;;;;;;20.14;100.00;65096.75;5051493;28;20229;-57
2023/09/21 07:08:19;;;;;;;16.30;8.45;;;;;;;20.16;100.00;65095.88;5051536;28;20205;-56
2023/09/21 07:10:45;;;;;;;20.45;9.18;;;;;;;20.33;100.00;65120.34;5051386;28;20232;-57
2023/09/21 07:13:13;;;;;;;18.42;8.48;;;;;;;20.23;100.00;65106.16;5051344;28;20232;-56
2023/09/21 07:15:48;;;;;;;19.70;8.77;;;;;;;20.47;100.00;65135.81;5051105;28;20676;-56
2023/09/21 07:18:14;;;;;;;17.15;8.73;;;;;;;20.48;100.00;65136.34;5050993;28;20228;-56
2023/09/21 07:20:39;;;;;;;20.13;8.18;;;;;;;20.49;100.00;65138.00;5051369;28;20170;-57
2023/09/21 07:23:05;;;;;;;11.10;7.35;;;;;;;20.51;100.00;65137.66;5051055;28;20216;-56
2023/09/21 07:25:30;;;;;;;12.75;8.23;;;;;;;20.71;100.00;65162.31;5049832;28;20326;-58
2023/09/21 07:27:57;;;;;;;14.30;7.03;;;;;;;20.76;100.00;65167.31;5033104;28;20224;-56
2023/09/21 07:30:23;;;;;;;10.75;6.18;;;;;;;21.01;97.94;65194.41;5051003;28;20335;-57
2023/09/21 07:32:49;;;;;;;8.15;5.78;;;;;;;21.10;97.44;65204.34;5050890;28;20284;-57
2023/09/21 07:35:15;;;;;;;7.85;5.20;;;;;;;21.11;99.96;65202.91;5050891;28;20293;-55
2023/09/21 07:37:46;;;;;;;12.60;6.63;;;;;;;21.02;94.46;65195.50;5032958;28;20240;-57
2023/09/21 07:40:13;;;;;;;9.15;6.10;;;;;;;21.06;96.53;65200.50;5050871;28;20200;-55
2023/09/21 07:42:43;;;;;;;12.82;6.53;;;;;;;21.18;96.47;65213.75;5050704;28;20300;-56
2023/09/21 07:45:09;;;;;;;10.32;5.95;;;;;;;21.17;97.36;65212.66;5050534;28;20684;-56
2023/09/21 07:47:37;;;;;;;7.65;5.20;;;;;;;21.27;97.91;65220.59;5050602;28;20211;-56
2023/09/21 07:50:03;;;;;;;11.13;5.68;;;;;;;21.32;94.49;65229.25;5050679;28;20267;-56
2023/09/21 07:52:35;;;;;;;9.00;5.35;;;;;;;21.36;94.93;65228.53;5050832;28;20223;-55
2023/09/21 07:55:05;;;;;;;14.52;5.10;;;;;;;21.59;92.40;65256.53;5050583;28;20213;-56
2023/09/21 07:57:37;;;;;;;12.52;5.43;;;;;;;21.54;93.69;65253.00;5050455;28;20213;-56
2023/09/21 08:00:05;;;;;;;8.93;5.50;;;;;;;21.38;95.82;65233.31;5050610;28;20211;-55
2023/09/21 08:02:33;;;;;;;10.98;5.13;;;;;;;21.31;93.56;65225.03;5050608;28;20225;-56
2023/09/21 08:04:59;;;;;;;8.65;5.00;;;;;;;21.20;92.93;65212.84;5050628;28;20201;-56
2023/09/21 08:07:27;;;;;;;8.82;4.45;;;;;;;21.29;94.68;65223.34;5050832;28;20273;-57
2023/09/21 08:09:57;;;;;;;11.07;5.32;;;;;;;21.25;95.00;65218.38;5032453;28;20256;-57
2023/09/21 08:12:24;;;;;;;11.15;5.43;;;;;;;21.33;97.06;65227.78;5050424;28;20209;-56
2023/09/21 08:14:51;;;;;;;10.30;6.15;;;;;;;21.44;99.44;65237.38;5032550;28;20236;-55
2023/09/21 08:17:17;;;;;;;11.73;5.03;;;;;;;21.40;97.29;65235.53;5050114;28;20699;-57
2023/09/21 08:19:43;;;;;;;7.65;5.53;;;;;;;21.51;94.90;65247.16;5050277;28;20300;-57
2023/09/21 08:22:09;;;;;;;11.77;5.63;;;;;;;21.50;93.70;65249.16;5050502;28;20244;-56
2023/09/21 08:24:36;;;;;;;9.27;5.57;;;;;;;21.59;92.52;65256.53;5050225;28;20701;-59
2023/09/21 08:27:03;;;;;;;13.25;6.65;;;;;;;21.57;91.01;65254.31;5032275;28;20308;-56
2023/09/21 08:29:30;;;;;;;9.77;5.10;;;;;;;21.42;94.51;65237.19;5032324;28;20198;-55
2023/09/21 08:31:56;;;;;;;9.40;5.40;;;;;;;21.55;91.28;65251.56;5050434;28;20209;-56
2023/09/21 08:34:22;;;;;;;11.55;6.20;;;;;;;21.52;89.43;65248.25;5050295;28;20200;-55
2023/09/21 08:36:48;;;;;;;10.98;5.78;;;;;;;21.54;89.62;65251.00;5050199;28;20214;-56
2023/09/21 08:39:13;;;;;;;12.02;5.72;;;;;;;21.29;90.73;65223.34;5050122;28;20197;-56
2023/09/21 08:41:50;;;;;;;11.25;6.25;;;;;;;21.10;90.33;65204.91;5050428;28;20209;-56
2023/09/21 08:44:20;;;;;;;9.30;5.68;;;;;;;21.12;90.66;65204.00;5032204;28;20293;-56
2023/09/21 08:46:47;;;;;;;13.88;6.10;;;;;;;21.09;90.89;65203.25;5049902;28;20546;-56
2023/09/21 08:49:18;;;;;;;9.73;5.60;;;;;;;21.04;91.15;65198.28;5050035;28;20632;-55
2023/09/21 08:51:44;;;;;;;9.88;5.10;;;;;;;21.03;90.07;65196.63;5049848;28;20291;-57
2023/09/21 08:54:15;;;;;;;11.60;5.25;;;;;;;20.94;90.07;65184.63;5049784;28;20282;-55
2023/09/21 08:56:46;;;;;;;8.57;5.35;;;;;;;20.99;90.81;65192.19;5031866;28;20213;-59
2023/09/21 08:59:13;;;;;;;9.05;5.10;;;;;;;21.04;90.53;65195.72;5049915;28;20688;-55
2023/09/21 09:01:39;;;;;;;10.23;5.75;;;;;;;21.05;90.68;65196.81;5049556;28;20221;-55
2023/09/21 09:04:06;;;;;;;12.05;5.80;;;;;;;21.04;92.53;65195.16;5050013;28;20186;-56
2023/09/21 09:06:32;;;;;;;12.98;6.40;;;;;;;21.00;91.99;65188.16;5050011;28;20216;-55
2023/09/21 09:08:58;;;;;;;10.00;5.65;;;;;;;21.13;90.77;65205.66;5031707;28;20197;-56
2023/09/21 09:11:40;;;;;;;8.23;4.97;;;;;;;21.13;91.77;65207.69;5049506;28;20806;-56
2023/09/21 09:14:19;;;;;;;10.73;5.13;;;;;;;21.04;91.96;65195.16;5049801;28;20232;-56
2023/09/21 09:16:51;;;;;;;11.18;5.38;;;;;;;21.13;91.06;65205.66;5049526;28;20221;-57
2023/09/21 09:19:17;;;;;;;9.77;4.60;;;;;;;21.33;90.57;65227.78;5049773;28;20198;-57
2023/09/21 09:21:44;;;;;;;12.40;5.93;;;;;;;21.38;90.29;65233.31;5049467;28;20279;-55
2023/09/21 09:24:14;;;;;;;13.48;6.50;;;;;;;21.49;91.50;65248.03;5049412;28;20197;-57
2023/09/21 09:26:39;;;;;;;11.88;5.53;;;;;;;21.45;93.81;65238.47;5049146;28;20222;-56
2023/09/21 09:29:07;;;;;;;9.95;5.30;;;;;;;21.37;92.42;65232.19;5049647;28;20209;-56
2023/09/21 09:31:34;;;;;;;8.93;5.38;;;;;;;21.32;93.04;65226.69;5049326;28;20755;-55
2023/09/21 09:34:04;;;;;;;8.63;5.70;;;;;;;21.29;96.55;65225.38;5049316;28;20205;-55
2023/09/21 09:36:32;;;;;;;9.18;6.15;;;;;;;21.35;95.02;65229.44;5031336;28;20209;-55
2023/09/21 09:39:01;;;;;;;13.20;6.18;;;;;;;21.41;95.67;65236.63;5049323;28;20263;-57
2023/09/21 09:41:31;;;;;;;8.02;5.50;;;;;;;21.79;100.00;65277.56;5049452;28;20234;-55
2023/09/21 09:44:01;;;;;;;11.13;6.30;;;;;;;21.94;98.81;65294.19;5031414;28;20205;-55
2023/09/21 09:46:26;;;;;;;12.77;6.00;;;;;;;21.82;93.65;65278.88;5031168;28;20262;-55
2023/09/21 09:48:58;;;;;;;7.72;5.72;;;;;;;21.96;94.72;65296.94;5051028;28;20279;-55
2023/09/21 09:51:37;;;;;;;13.80;6.35;;;;;;;22.07;91.42;65309.13;5052621;28;20202;-56
2023/09/21 09:54:03;;;;;;;10.68;6.13;;;;;;;22.02;89.13;65305.59;5065725;22;20262;-55
2023/09/21 09:56:30;;;;;;;12.43;6.63;;;;;;;21.97;91.42;65297.50;5065613;28;20209;-55
2023/09/21 09:58:58;;;;;;;13.77;6.30;;;;;;;22.02;91.71;65303.56;5051381;28;20205;-55
2023/09/21 10:01:26;;;;;;;12.23;6.75;;;;;;;21.97;95.63;65297.50;5052403;28;20209;-56
2023/09/21 10:03:55;;;;;;;13.13;6.28;;;;;;;22.07;95.62;65311.13;5052570;28;20202;-58
2023/09/21 10:06:23;;;;;;;11.38;6.88;;;;;;;22.01;96.00;65301.91;5052211;28;20213;-56
2023/09/21 10:08:49;;;;;;;8.18;5.93;;;;;;;22.04;95.56;65305.25;5052578;28;20213;-56
2023/09/21 10:11:17;;;;;;;9.93;5.97;;;;;;;22.27;95.29;65330.69;5052267;28;20205;-56
2023/09/21 10:13:51;;;;;;;12.30;6.15;;;;;;;22.22;95.70;65323.13;5052660;28;20211;-58
2023/09/21 10:16:19;;;;;;;10.82;6.57;;;;;;;22.38;94.43;65343.41;5034432;28;20246;-55
2023/09/21 10:18:45;;;;;;;15.30;6.57;;;;;;;22.59;91.07;65366.13;5052002;28;20721;-56
2023/09/21 10:21:24;;;;;;;9.55;6.88;;;;;;;22.65;88.04;65370.22;5051795;28;20216;-56
2023/09/21 10:24:18;;;;;;;8.95;6.90;;;;;;;22.83;86.50;65392.72;5033864;28;20266;-54
2023/09/21 10:26:49;;;;;;;10.63;6.65;;;;;;;23.03;87.11;65416.88;5051726;28;20252;-54
2023/09/21 10:29:19;;;;;;;12.32;6.95;;;;;;;23.07;83.93;65416.72;5034254;28;20193;-54
2023/09/21 10:31:57;;;;;;;13.25;6.57;;;;;;;23.43;85.46;65458.09;5033824;28;20209;-55
2023/09/21 10:34:25;;;;;;;13.20;6.38;;;;;;;24.29;79.54;65550.88;5052274;28;20604;-54
2023/09/21 10:36:57;;;;;;;14.10;6.30;;;;;;;24.71;79.48;65600.03;5051872;28;20213;-54
2023/09/21 10:39:24;;;;;;;11.23;6.18;;;;;;;25.84;70.46;65721.78;5052105;28;20212;-59
2023/09/21 10:41:52;;;;;;;15.85;5.93;;;;;;;26.50;65.28;65797.16;5051735;28;20576;-54
2023/09/21 10:44:55;;;;;;;7.15;5.63;;;;;;;26.18;66.20;65759.56;5051711;28;20217;-57
2023/09/21 10:47:41;;;;;;;11.23;5.75;;;;;;;26.13;66.47;65756.03;5050359;28;20220;-54
2023/09/21 10:50:16;;;;;;;9.95;5.75;;;;;;;26.38;65.43;65781.78;5034000;28;20190;-55
2023/09/21 10:52:47;;;;;;;8.63;5.63;;;;;;;27.35;61.69;65889.06;5051741;28;20292;-55
2023/09/21 10:55:16;;;;;;;9.55;6.22;;;;;;;27.93;62.53;65955.63;5051867;28;20209;-55
2023/09/21 10:57:44;;;;;;;12.00;5.18;;;;;;;28.37;59.11;66001.44;5033719;28;20655;-54
2023/09/21 11:00:21;;;;;;;8.90;6.00;;;;;;;28.73;57.06;66043.53;5051523;28;20198;-53
2023/09/21 11:02:50;;;;;;;7.78;6.28;;;;;;;28.97;54.51;66068.22;5051627;28;20211;-55
2023/09/21 11:05:19;;;;;;;6.68;5.20;;;;;;;29.25;53.48;66101.47;5051449;28;20202;-55
2023/09/21 11:07:51;;;;;;;7.93;4.82;;;;;;;29.64;55.33;66144.34;5051718;28;20672;-56
2023/09/21 11:10:20;;;;;;;8.15;4.93;;;;;;;29.77;52.41;66156.25;5033985;28;20277;-57
2023/09/21 11:12:48;;;;;;;8.75;5.18;;;;;;;29.84;52.38;66164.06;5051527;28;20720;-55
2023/09/21 11:15:18;;;;;;;8.02;5.10;;;;;;;28.93;51.96;66063.22;5033416;28;20319;-55
2023/09/21 11:17:46;;;;;;;10.98;5.40;;;;;;;28.73;54.68;66041.50;5033478;28;20215;-55
2023/09/21 11:20:14;;;;;;;8.63;5.30;;;;;;;29.06;55.43;66077.69;5051444;28;20251;-55
2023/09/21 11:22:43;;;;;;;11.13;5.15;;;;;;;29.75;53.50;66154.03;5033870;28;20231;-54
2023/09/21 11:25:11;;;;;;;8.25;4.65;;;;;;;30.11;50.89;66190.97;5033458;28;20773;-57
2023/09/21 11:27:39;;;;;;;9.55;5.95;;;;;;;29.81;50.65;66158.69;5033158;28;20217;-54
2023/09/21 11:30:07;;;;;;;7.65;5.53;;;;;;;29.85;50.61;66167.78;5051304;28;20197;-55